sensor_id;sensor_type;location;lat;lon;timestamp;pressure;altitude;pressure_sealevel;temperature;humidity
7662;BME280;30314;48.184;11.510;2022-10-16T00:01:17;95974.66;;;11.95;100.00
7662;BME280;30314;48.184;11.510;2022-10-16T00:03:46;95974.94;;;11.93;100.00
7662;BME280;30314;48.184;11.510;2022-10-16T00:06:15;95952.69;;;11.94;100.00
7662;BME280;30314;48.184;11.510;2022-10-16T00:08:44;95964.50;;;12.02;100.00
7662;BME280;30314;48.184;11.510;2022-10-16T00:11:14;95975.63;;;11.99;100.00
7662;BME280;30314;48.184;11.510;2022-10-16T00:13:43;95945.25;;;11.54;100.00
7662;BME280;30314;48.184;11.510;2022-10-16T00:16:13;95925.63;;;11.41;100.00
7662;BME280;30314;48.184;11.510;2022-10-16T00:18:41;95974.66;;;11.81;100.00
7662;BME280;30314;48.184;11.510;2022-10-16T00:21:12;95873.75;;;11.26;100.00
7662;BME280;30314;48.184;11.510;2022-10-16T00:23:40;95963.38;;;11.89;100.00
7662;BME280;30314;48.184;11.510;2022-10-16T00:26:10;95965.75;;;11.91;100.00
7662;BME280;30314;48.184;11.510;2022-10-16T00:28:39;95902.69;;;11.37;100.00
7662;BME280;30314;48.184;11.510;2022-10-16T00:31:09;95837.19;;;11.00;100.00
7662;BME280;30314;48.184;11.510;2022-10-16T00:33:39;95960.94;;;11.79;100.00
7662;BME280;30314;48.184;11.510;2022-10-16T00:36:10;95964.88;;;11.95;100.00
7662;BME280;30314;48.184;11.510;2022-10-16T00:38:39;95970.72;;;11.92;100.00
7662;BME280;30314;48.184;11.510;2022-10-16T00:41:07;95971.84;;;12.05;100.00
7662;BME280;30314;48.184;11.510;2022-10-16T00:43:40;95960.53;;;11.85;100.00
7662;BME280;30314;48.184;11.510;2022-10-16T00:46:17;95978.59;;;11.97;100.00
7662;BME280;30314;48.184;11.510;2022-10-16T00:48:50;95983.91;;;11.97;100.00
7662;BME280;30314;48.184;11.510;2022-10-16T00:51:21;95987.03;;;11.99;100.00
7662;BME280;30314;48.184;11.510;2022-10-16T00:53:50;95973.09;;;11.94;100.00
7662;BME280;30314;48.184;11.510;2022-10-16T00:56:18;95989.00;;;11.94;100.00
7662;BME280;30314;48.184;11.510;2022-10-16T00:58:46;95984.69;;;11.84;100.00
7662;BME280;30314;48.184;11.510;2022-10-16T01:01:14;95981.94;;;11.75;100.00
7662;BME280;30314;48.184;11.510;2022-10-16T01:03:42;95979.38;;;11.70;100.00
7662;BME280;30314;48.184;11.510;2022-10-16T01:06:21;95943.06;;;11.28;100.00
7662;BME280;30314;48.184;11.510;2022-10-16T01:09:12;95994.84;;;11.49;100.00
7662;BME280;30314;48.184;11.510;2022-10-16T01:11:47;95988.75;;;11.34;100.00
7662;BME280;30314;48.184;11.510;2022-10-16T01:14:22;95913.47;;;10.79;100.00
7662;BME280;30314;48.184;11.510;2022-10-16T01:16:59;96012.56;;;11.34;100.00
7662;BME280;30314;48.184;11.510;2022-10-16T01:19:47;95999.94;;;11.31;100.00
7662;BME280;30314;48.184;11.510;2022-10-16T01:22:20;96000.22;;;11.30;100.00
7662;BME280;30314;48.184;11.510;2022-10-16T01:24:49;95993.44;;;11.23;100.00
7662;BME280;30314;48.184;11.510;2022-10-16T01:27:21;95887.31;;;10.45;100.00
7662;BME280;30314;48.184;11.510;2022-10-16T01:29:54;95907.28;;;10.51;100.00
7662;BME280;30314;48.184;11.510;2022-10-16T01:32:28;96000.88;;;11.21;100.00
7662;BME280;30314;48.184;11.510;2022-10-16T01:35:02;95998.03;;;11.18;100.00
7662;BME280;30314;48.184;11.510;2022-10-16T01:37:35;95984.81;;;11.32;100.00
7662;BME280;30314;48.184;11.510;2022-10-16T01:40:07;95995.44;;;11.46;100.00
7662;BME280;30314;48.184;11.510;2022-10-16T01:42:40;95984.69;;;11.56;100.00
7662;BME280;30314;48.184;11.510;2022-10-16T01:45:12;95985.63;;;11.74;100.00
7662;BME280;30314;48.184;11.510;2022-10-16T01:47:41;96002.06;;;11.76;100.00
7662;BME280;30314;48.184;11.510;2022-10-16T01:50:10;95986.25;;;11.71;100.00
7662;BME280;30314;48.184;11.510;2022-10-16T01:52:43;95985.53;;;11.65;100.00
7662;BME280;30314;48.184;11.510;2022-10-16T01:55:16;95977.91;;;11.64;100.00
7662;BME280;30314;48.184;11.510;2022-10-16T01:57:49;95987.00;;;11.57;100.00
7662;BME280;30314;48.184;11.510;2022-10-16T02:00:19;95962.06;;;11.31;100.00
7662;BME280;30314;48.184;11.510;2022-10-16T02:02:49;95901.56;;;10.96;100.00
7662;BME280;30314;48.184;11.510;2022-10-16T02:05:23;95962.88;;;11.31;100.00
7662;BME280;30314;48.184;11.510;2022-10-16T02:07:52;95981.22;;;11.41;100.00
7662;BME280;30314;48.184;11.510;2022-10-16T02:10:21;95975.25;;;11.36;100.00
7662;BME280;30314;48.184;11.510;2022-10-16T02:12:55;95836.03;;;10.26;100.00
7662;BME280;30314;48.184;11.510;2022-10-16T02:15:25;95977.56;;;11.23;100.00
7662;BME280;30314;48.184;11.510;2022-10-16T02:17:52;95980.50;;;11.22;100.00
7662;BME280;30314;48.184;11.510;2022-10-16T02:20:27;95975.47;;;11.20;100.00
7662;BME280;30314;48.184;11.510;2022-10-16T02:23:00;95883.63;;;10.60;100.00
7662;BME280;30314;48.184;11.510;2022-10-16T02:25:31;95903.91;;;10.64;100.00
7662;BME280;30314;48.184;11.510;2022-10-16T02:28:04;95974.22;;;11.18;100.00
7662;BME280;30314;48.184;11.510;2022-10-16T02:30:38;95982.66;;;11.20;100.00
7662;BME280;30314;48.184;11.510;2022-10-16T02:33:09;95991.44;;;11.15;100.00
7662;BME280;30314;48.184;11.510;2022-10-16T02:35:41;95988.91;;;11.10;100.00
7662;BME280;30314;48.184;11.510;2022-10-16T02:38:11;95993.13;;;11.11;100.00
7662;BME280;30314;48.184;11.510;2022-10-16T02:40:39;95882.00;;;10.25;100.00
7662;BME280;30314;48.184;11.510;2022-10-16T02:43:09;95950.91;;;10.67;100.00
7662;BME280;30314;48.184;11.510;2022-10-16T02:45:37;95994.63;;;10.98;100.00
7662;BME280;30314;48.184;11.510;2022-10-16T02:48:05;95971.94;;;10.78;100.00
7662;BME280;30314;48.184;11.510;2022-10-16T02:50:33;95996.66;;;10.87;100.00
7662;BME280;30314;48.184;11.510;2022-10-16T02:53:01;95982.38;;;10.69;100.00
7662;BME280;30314;48.184;11.510;2022-10-16T02:55:29;96006.44;;;10.86;100.00
7662;BME280;30314;48.184;11.510;2022-10-16T02:57:56;95985.59;;;10.66;100.00
7662;BME280;30314;48.184;11.510;2022-10-16T03:00:26;96002.59;;;10.79;100.00
7662;BME280;30314;48.184;11.510;2022-10-16T03:02:55;95922.16;;;10.27;100.00
7662;BME280;30314;48.184;11.510;2022-10-16T03:05:22;95990.53;;;10.73;100.00
7662;BME280;30314;48.184;11.510;2022-10-16T03:07:50;95972.53;;;10.55;100.00
7662;BME280;30314;48.184;11.510;2022-10-16T03:10:19;95987.66;;;10.69;100.00
7662;BME280;30314;48.184;11.510;2022-10-16T03:12:46;95986.91;;;10.68;100.00
7662;BME280;30314;48.184;11.510;2022-10-16T03:15:14;95994.53;;;10.70;100.00
7662;BME280;30314;48.184;11.510;2022-10-16T03:17:43;95886.84;;;9.80;100.00
7662;BME280;30314;48.184;11.510;2022-10-16T03:20:11;95948.28;;;10.29;100.00
7662;BME280;30314;48.184;11.510;2022-10-16T03:22:39;95996.53;;;10.59;100.00
7662;BME280;30314;48.184;11.510;2022-10-16T03:25:07;96008.91;;;10.64;100.00
7662;BME280;30314;48.184;11.510;2022-10-16T03:27:35;95912.56;;;9.93;100.00
7662;BME280;30314;48.184;11.510;2022-10-16T03:30:03;95923.44;;;10.11;100.00
7662;BME280;30314;48.184;11.510;2022-10-16T03:32:31;95990.59;;;10.67;100.00
7662;BME280;30314;48.184;11.510;2022-10-16T03:35:00;95823.75;;;9.59;100.00
7662;BME280;30314;48.184;11.510;2022-10-16T03:37:28;95999.75;;;10.75;100.00
7662;BME280;30314;48.184;11.510;2022-10-16T03:39:55;95994.28;;;10.85;100.00
7662;BME280;30314;48.184;11.510;2022-10-16T03:42:23;95889.28;;;10.14;100.00
7662;BME280;30314;48.184;11.510;2022-10-16T03:44:51;95928.91;;;10.34;100.00
7662;BME280;30314;48.184;11.510;2022-10-16T03:47:19;96013.50;;;10.91;100.00
7662;BME280;30314;48.184;11.510;2022-10-16T03:49:48;96013.25;;;10.93;100.00
7662;BME280;30314;48.184;11.510;2022-10-16T03:52:17;96013.25;;;10.93;100.00
7662;BME280;30314;48.184;11.510;2022-10-16T03:54:50;96027.44;;;10.97;100.00
7662;BME280;30314;48.184;11.510;2022-10-16T03:57:17;95976.44;;;10.77;100.00
7662;BME280;30314;48.184;11.510;2022-10-16T03:59:47;96008.34;;;11.00;100.00
7662;BME280;30314;48.184;11.510;2022-10-16T04:02:14;95921.09;;;10.48;100.00
7662;BME280;30314;48.184;11.510;2022-10-16T04:04:42;95973.31;;;10.75;100.00
7662;BME280;30314;48.184;11.510;2022-10-16T04:07:10;96006.63;;;11.09;100.00
7662;BME280;30314;48.184;11.510;2022-10-16T04:09:39;96001.91;;;11.06;100.00
7662;BME280;30314;48.184;11.510;2022-10-16T04:12:07;95894.03;;;10.18;100.00
7662;BME280;30314;48.184;11.510;2022-10-16T04:14:34;95875.22;;;10.19;100.00
7662;BME280;30314;48.184;11.510;2022-10-16T04:17:02;95995.91;;;11.00;100.00
7662;BME280;30314;48.184;11.510;2022-10-16T04:19:30;95914.81;;;10.43;100.00
7662;BME280;30314;48.184;11.510;2022-10-16T04:21:58;95977.06;;;10.88;100.00
7662;BME280;30314;48.184;11.510;2022-10-16T04:24:25;96005.06;;;11.08;100.00
7662;BME280;30314;48.184;11.510;2022-10-16T04:26:54;95986.63;;;11.03;100.00
7662;BME280;30314;48.184;11.510;2022-10-16T04:29:22;95824.13;;;9.71;100.00
7662;BME280;30314;48.184;11.510;2022-10-16T04:31:50;96003.28;;;11.04;100.00
7662;BME280;30314;48.184;11.510;2022-10-16T04:34:18;96006.78;;;10.99;100.00
7662;BME280;30314;48.184;11.510;2022-10-16T04:36:47;95998.44;;;10.92;100.00
7662;BME280;30314;48.184;11.510;2022-10-16T04:39:15;96002.66;;;10.93;100.00
7662;BME280;30314;48.184;11.510;2022-10-16T04:41:43;95982.56;;;10.92;100.00
7662;BME280;30314;48.184;11.510;2022-10-16T04:44:12;96011.16;;;11.09;100.00
7662;BME280;30314;48.184;11.510;2022-10-16T04:46:40;95998.56;;;11.00;100.00
7662;BME280;30314;48.184;11.510;2022-10-16T04:49:08;95947.88;;;10.60;100.00
7662;BME280;30314;48.184;11.510;2022-10-16T04:51:36;95912.44;;;10.42;100.00
7662;BME280;30314;48.184;11.510;2022-10-16T04:54:03;95980.41;;;10.94;100.00
7662;BME280;30314;48.184;11.510;2022-10-16T04:56:31;96004.59;;;11.20;100.00
7662;BME280;30314;48.184;11.510;2022-10-16T04:58:59;96006.09;;;11.26;100.00
7662;BME280;30314;48.184;11.510;2022-10-16T05:01:28;95989.59;;;11.16;100.00
7662;BME280;30314;48.184;11.510;2022-10-16T05:03:58;96000.09;;;11.21;100.00
7662;BME280;30314;48.184;11.510;2022-10-16T05:06:26;95901.94;;;10.56;100.00
7662;BME280;30314;48.184;11.510;2022-10-16T05:08:54;96008.03;;;11.21;100.00
7662;BME280;30314;48.184;11.510;2022-10-16T05:11:21;95980.19;;;10.90;100.00
7662;BME280;30314;48.184;11.510;2022-10-16T05:13:49;96011.25;;;11.18;100.00
7662;BME280;30314;48.184;11.510;2022-10-16T05:16:21;96015.00;;;11.17;100.00
7662;BME280;30314;48.184;11.510;2022-10-16T05:18:51;96014.69;;;11.18;100.00
7662;BME280;30314;48.184;11.510;2022-10-16T05:21:29;96010.09;;;11.24;100.00
7662;BME280;30314;48.184;11.510;2022-10-16T05:23:57;96006.84;;;11.27;100.00
7662;BME280;30314;48.184;11.510;2022-10-16T05:26:25;96019.69;;;11.20;100.00
7662;BME280;30314;48.184;11.510;2022-10-16T05:28:53;95990.06;;;10.84;100.00
7662;BME280;30314;48.184;11.510;2022-10-16T05:31:20;95991.97;;;10.98;100.00
7662;BME280;30314;48.184;11.510;2022-10-16T05:33:50;96027.06;;;11.23;100.00
7662;BME280;30314;48.184;11.510;2022-10-16T05:36:17;96016.50;;;11.04;100.00
7662;BME280;30314;48.184;11.510;2022-10-16T05:38:45;95911.22;;;10.34;100.00
7662;BME280;30314;48.184;11.510;2022-10-16T05:41:13;95963.09;;;10.68;100.00
7662;BME280;30314;48.184;11.510;2022-10-16T05:43:40;96041.34;;;11.22;100.00
7662;BME280;30314;48.184;11.510;2022-10-16T05:46:08;96040.88;;;11.20;100.00
7662;BME280;30314;48.184;11.510;2022-10-16T05:48:36;96048.31;;;11.18;100.00
7662;BME280;30314;48.184;11.510;2022-10-16T05:51:06;96048.69;;;11.11;100.00
7662;BME280;30314;48.184;11.510;2022-10-16T05:53:35;95989.81;;;10.67;100.00
7662;BME280;30314;48.184;11.510;2022-10-16T05:56:05;96055.19;;;11.19;100.00
7662;BME280;30314;48.184;11.510;2022-10-16T05:58:35;96024.09;;;10.91;100.00
7662;BME280;30314;48.184;11.510;2022-10-16T06:01:04;96048.84;;;11.00;100.00
7662;BME280;30314;48.184;11.510;2022-10-16T06:03:33;96032.13;;;10.86;100.00
7662;BME280;30314;48.184;11.510;2022-10-16T06:06:09;96054.50;;;10.94;100.00
7662;BME280;30314;48.184;11.510;2022-10-16T06:08:38;96056.31;;;10.93;100.00
7662;BME280;30314;48.184;11.510;2022-10-16T06:11:08;96025.03;;;10.81;100.00
7662;BME280;30314;48.184;11.510;2022-10-16T06:13:36;96063.19;;;10.94;100.00
7662;BME280;30314;48.184;11.510;2022-10-16T06:16:06;96065.91;;;10.89;100.00
7662;BME280;30314;48.184;11.510;2022-10-16T06:18:34;96034.19;;;10.70;100.00
7662;BME280;30314;48.184;11.510;2022-10-16T06:21:09;95994.97;;;10.34;100.00
7662;BME280;30314;48.184;11.510;2022-10-16T06:23:37;95934.81;;;9.87;100.00
7662;BME280;30314;48.184;11.510;2022-10-16T06:26:06;96073.13;;;10.83;100.00
7662;BME280;30314;48.184;11.510;2022-10-16T06:28:34;96061.22;;;10.67;100.00
7662;BME280;30314;48.184;11.510;2022-10-16T06:31:03;96084.03;;;10.82;100.00
7662;BME280;30314;48.184;11.510;2022-10-16T06:33:34;96011.38;;;10.36;100.00
7662;BME280;30314;48.184;11.510;2022-10-16T06:36:03;96082.50;;;10.76;100.00
7662;BME280;30314;48.184;11.510;2022-10-16T06:38:32;96081.72;;;10.75;100.00
7662;BME280;30314;48.184;11.510;2022-10-16T06:41:00;95985.81;;;10.07;100.00
7662;BME280;30314;48.184;11.510;2022-10-16T06:43:28;96092.34;;;10.70;100.00
7662;BME280;30314;48.184;11.510;2022-10-16T06:45:59;96094.97;;;10.75;100.00
7662;BME280;30314;48.184;11.510;2022-10-16T06:48:29;96097.06;;;10.73;100.00
7662;BME280;30314;48.184;11.510;2022-10-16T06:50:58;96058.03;;;10.46;100.00
7662;BME280;30314;48.184;11.510;2022-10-16T06:53:28;96090.38;;;10.62;100.00
7662;BME280;30314;48.184;11.510;2022-10-16T06:56:12;96100.25;;;10.75;100.00
7662;BME280;30314;48.184;11.510;2022-10-16T06:58:41;96110.81;;;10.75;100.00
7662;BME280;30314;48.184;11.510;2022-10-16T07:01:10;96113.16;;;10.77;100.00
7662;BME280;30314;48.184;11.510;2022-10-16T07:03:38;96114.38;;;10.84;100.00
7662;BME280;30314;48.184;11.510;2022-10-16T07:06:08;96116.53;;;10.82;100.00
7662;BME280;30314;48.184;11.510;2022-10-16T07:08:37;96111.25;;;10.82;100.00
7662;BME280;30314;48.184;11.510;2022-10-16T07:11:08;96118.09;;;10.83;100.00
7662;BME280;30314;48.184;11.510;2022-10-16T07:13:39;96116.63;;;10.96;100.00
7662;BME280;30314;48.184;11.510;2022-10-16T07:16:10;96120.75;;;11.03;100.00
7662;BME280;30314;48.184;11.510;2022-10-16T07:18:39;96121.56;;;11.03;100.00
7662;BME280;30314;48.184;11.510;2022-10-16T07:21:10;95975.41;;;9.96;100.00
7662;BME280;30314;48.184;11.510;2022-10-16T07:23:38;96117.97;;;10.94;100.00
7662;BME280;30314;48.184;11.510;2022-10-16T07:26:07;96014.63;;;10.27;100.00
7662;BME280;30314;48.184;11.510;2022-10-16T07:28:35;96115.56;;;10.97;100.00
7662;BME280;30314;48.184;11.510;2022-10-16T07:31:06;96135.50;;;11.09;100.00
7662;BME280;30314;48.184;11.510;2022-10-16T07:33:35;96142.78;;;11.17;100.00
7662;BME280;30314;48.184;11.510;2022-10-16T07:36:03;96147.56;;;11.34;100.00
7662;BME280;30314;48.184;11.510;2022-10-16T07:38:31;96116.03;;;11.19;100.00
7662;BME280;30314;48.184;11.510;2022-10-16T07:40:59;96030.06;;;10.64;100.00
7662;BME280;30314;48.184;11.510;2022-10-16T07:43:27;96062.06;;;10.81;100.00
7662;BME280;30314;48.184;11.510;2022-10-16T07:45:56;96162.63;;;11.53;100.00
7662;BME280;30314;48.184;11.510;2022-10-16T07:48:30;96166.22;;;11.62;100.00
7662;BME280;30314;48.184;11.510;2022-10-16T07:50:59;96164.81;;;11.84;100.00
7662;BME280;30314;48.184;11.510;2022-10-16T07:53:28;96072.13;;;11.51;100.00
7662;BME280;30314;48.184;11.510;2022-10-16T07:55:57;96173.88;;;12.58;100.00
7662;BME280;30314;48.184;11.510;2022-10-16T07:58:26;96174.81;;;13.04;100.00
7662;BME280;30314;48.184;11.510;2022-10-16T08:00:54;96166.78;;;13.32;100.00
7662;BME280;30314;48.184;11.510;2022-10-16T08:03:22;96166.75;;;13.46;100.00
7662;BME280;30314;48.184;11.510;2022-10-16T08:05:51;96176.00;;;13.49;100.00
7662;BME280;30314;48.184;11.510;2022-10-16T08:08:19;96180.22;;;13.50;100.00
7662;BME280;30314;48.184;11.510;2022-10-16T08:10:47;96177.47;;;13.55;100.00
7662;BME280;30314;48.184;11.510;2022-10-16T08:13:14;96175.53;;;13.70;100.00
7662;BME280;30314;48.184;11.510;2022-10-16T08:15:42;96154.66;;;13.54;100.00
7662;BME280;30314;48.184;11.510;2022-10-16T08:18:12;96173.38;;;13.72;100.00
7662;BME280;30314;48.184;11.510;2022-10-16T08:20:42;96156.75;;;13.66;100.00
7662;BME280;30314;48.184;11.510;2022-10-16T08:23:12;96101.63;;;13.49;100.00
7662;BME280;30314;48.184;11.510;2022-10-16T08:25:40;96190.25;;;14.21;100.00
7662;BME280;30314;48.184;11.510;2022-10-16T08:28:10;96162.16;;;14.06;100.00
7662;BME280;30314;48.184;11.510;2022-10-16T08:30:38;96213.44;;;14.38;100.00
7662;BME280;30314;48.184;11.510;2022-10-16T08:33:06;96194.91;;;14.47;100.00
7662;BME280;30314;48.184;11.510;2022-10-16T08:35:34;96159.13;;;14.31;100.00
7662;BME280;30314;48.184;11.510;2022-10-16T08:38:05;96210.06;;;14.87;100.00
7662;BME280;30314;48.184;11.510;2022-10-16T08:40:35;96203.69;;;15.06;100.00
7662;BME280;30314;48.184;11.510;2022-10-16T08:43:26;96204.81;;;15.14;100.00
7662;BME280;30314;48.184;11.510;2022-10-16T08:46:21;96206.56;;;15.27;100.00
7662;BME280;30314;48.184;11.510;2022-10-16T08:48:56;96173.16;;;15.03;100.00
7662;BME280;30314;48.184;11.510;2022-10-16T08:51:27;96218.31;;;15.26;100.00
7662;BME280;30314;48.184;11.510;2022-10-16T08:53:58;96214.22;;;15.29;100.00
7662;BME280;30314;48.184;11.510;2022-10-16T08:56:28;96210.63;;;15.33;100.00
7662;BME280;30314;48.184;11.510;2022-10-16T08:58:58;96204.06;;;15.40;100.00
7662;BME280;30314;48.184;11.510;2022-10-16T09:01:37;96225.69;;;15.64;100.00
7662;BME280;30314;48.184;11.510;2022-10-16T09:04:28;96220.97;;;15.79;100.00
7662;BME280;30314;48.184;11.510;2022-10-16T09:07:04;96189.66;;;15.58;100.00
7662;BME280;30314;48.184;11.510;2022-10-16T09:09:48;96187.28;;;15.65;100.00
7662;BME280;30314;48.184;11.510;2022-10-16T09:12:25;96089.38;;;15.01;100.00
7662;BME280;30314;48.184;11.510;2022-10-16T09:15:02;96154.84;;;15.63;100.00
7662;BME280;30314;48.184;11.510;2022-10-16T09:17:41;96176.13;;;15.99;100.00
7662;BME280;30314;48.184;11.510;2022-10-16T09:20:24;96210.44;;;16.27;100.00
7662;BME280;30314;48.184;11.510;2022-10-16T09:23:10;96215.28;;;16.33;100.00
7662;BME280;30314;48.184;11.510;2022-10-16T09:25:43;96199.56;;;16.32;100.00
7662;BME280;30314;48.184;11.510;2022-10-16T09:28:13;96126.75;;;15.92;100.00
7662;BME280;30314;48.184;11.510;2022-10-16T09:30:41;96219.81;;;16.81;100.00
7662;BME280;30314;48.184;11.510;2022-10-16T09:33:10;96223.38;;;16.94;100.00
7662;BME280;30314;48.184;11.510;2022-10-16T09:35:40;96207.66;;;16.92;100.00
7662;BME280;30314;48.184;11.510;2022-10-16T09:38:21;96184.28;;;16.89;100.00
7662;BME280;30314;48.184;11.510;2022-10-16T09:40:49;96131.88;;;16.54;100.00
7662;BME280;30314;48.184;11.510;2022-10-16T09:43:33;96183.03;;;17.16;100.00
7662;BME280;30314;48.184;11.510;2022-10-16T09:46:03;96233.16;;;17.83;100.00
7662;BME280;30314;48.184;11.510;2022-10-16T09:48:35;96237.47;;;17.97;100.00
7662;BME280;30314;48.184;11.510;2022-10-16T09:51:05;96243.88;;;18.05;100.00
7662;BME280;30314;48.184;11.510;2022-10-16T09:56:10;96239.94;;;18.36;100.00
7662;BME280;30314;48.184;11.510;2022-10-16T09:58:49;96118.94;;;17.50;100.00
7662;BME280;30314;48.184;11.510;2022-10-16T10:01:19;96249.88;;;18.35;100.00
7662;BME280;30314;48.184;11.510;2022-10-16T10:03:47;96216.25;;;18.13;100.00
7662;BME280;30314;48.184;11.510;2022-10-16T10:06:20;96135.56;;;17.89;100.00
7662;BME280;30314;48.184;11.510;2022-10-16T10:08:57;96197.22;;;18.39;100.00
7662;BME280;30314;48.184;11.510;2022-10-16T10:11:55;96237.88;;;18.66;100.00
7662;BME280;30314;48.184;11.510;2022-10-16T10:14:31;96195.41;;;18.31;100.00
7662;BME280;30314;48.184;11.510;2022-10-16T10:17:10;96223.03;;;18.56;100.00
7662;BME280;30314;48.184;11.510;2022-10-16T10:19:40;96148.00;;;18.07;100.00
7662;BME280;30314;48.184;11.510;2022-10-16T10:22:25;96252.59;;;18.97;99.14
7662;BME280;30314;48.184;11.510;2022-10-16T10:24:56;96247.75;;;18.99;100.00
7662;BME280;30314;48.184;11.510;2022-10-16T10:27:27;96186.22;;;18.66;100.00
7662;BME280;30314;48.184;11.510;2022-10-16T10:30:01;96203.19;;;18.82;97.45
7662;BME280;30314;48.184;11.510;2022-10-16T10:32:35;96237.34;;;19.23;99.14
7662;BME280;30314;48.184;11.510;2022-10-16T10:35:14;96181.19;;;18.89;100.00
7662;BME280;30314;48.184;11.510;2022-10-16T10:37:51;96211.13;;;19.04;97.02
7662;BME280;30314;48.184;11.510;2022-10-16T10:40:31;96244.25;;;19.36;91.63
7662;BME280;30314;48.184;11.510;2022-10-16T10:43:09;96243.44;;;19.36;99.95
7662;BME280;30314;48.184;11.510;2022-10-16T10:45:44;96211.31;;;19.23;99.73
7662;BME280;30314;48.184;11.510;2022-10-16T10:48:24;96239.03;;;19.68;89.56
7662;BME280;30314;48.184;11.510;2022-10-16T10:50:58;96228.41;;;19.72;86.74
7662;BME280;30314;48.184;11.510;2022-10-16T10:53:36;96252.47;;;19.97;89.24
7662;BME280;30314;48.184;11.510;2022-10-16T10:56:16;96236.94;;;20.03;96.59
7662;BME280;30314;48.184;11.510;2022-10-16T10:59:15;96238.28;;;19.96;90.75
7662;BME280;30314;48.184;11.510;2022-10-16T11:01:54;96225.66;;;19.97;89.95
7662;BME280;30314;48.184;11.510;2022-10-16T11:04:35;96241.25;;;20.07;85.62
7662;BME280;30314;48.184;11.510;2022-10-16T11:07:11;96239.19;;;20.17;91.29
7662;BME280;30314;48.184;11.510;2022-10-16T11:09:44;96234.34;;;20.06;86.59
7662;BME280;30314;48.184;11.510;2022-10-16T11:12:17;96179.03;;;19.61;87.40
7662;BME280;30314;48.184;11.510;2022-10-16T11:14:48;96161.91;;;19.37;87.29
7662;BME280;30314;48.184;11.510;2022-10-16T11:17:21;96243.75;;;20.00;84.66
7662;BME280;30314;48.184;11.510;2022-10-16T11:19:55;96238.41;;;19.88;87.68
7662;BME280;30314;48.184;11.510;2022-10-16T11:22:30;96235.28;;;19.85;86.77
7662;BME280;30314;48.184;11.510;2022-10-16T11:25:04;96229.28;;;19.76;86.04
7662;BME280;30314;48.184;11.510;2022-10-16T11:27:37;96233.09;;;19.63;83.56
7662;BME280;30314;48.184;11.510;2022-10-16T11:30:14;96230.47;;;19.50;85.52
7662;BME280;30314;48.184;11.510;2022-10-16T11:32:53;96237.75;;;19.37;84.94
7662;BME280;30314;48.184;11.510;2022-10-16T11:35:25;96226.78;;;19.42;84.73
7662;BME280;30314;48.184;11.510;2022-10-16T11:38:03;96238.56;;;19.38;83.16
7662;BME280;30314;48.184;11.510;2022-10-16T11:40:38;96196.16;;;19.15;84.51
7662;BME280;30314;48.184;11.510;2022-10-16T11:43:13;96228.28;;;19.40;80.01
7662;BME280;30314;48.184;11.510;2022-10-16T11:45:44;96173.72;;;19.07;82.51
7662;BME280;30314;48.184;11.510;2022-10-16T11:48:23;96230.47;;;19.50;77.73
7662;BME280;30314;48.184;11.510;2022-10-16T11:50:53;96229.59;;;19.46;77.82
7662;BME280;30314;48.184;11.510;2022-10-16T11:53:31;96228.25;;;19.52;74.85
7662;BME280;30314;48.184;11.510;2022-10-16T11:56:03;96229.13;;;19.56;80.25
7662;BME280;30314;48.184;11.510;2022-10-16T11:58:33;96213.31;;;19.39;80.99
7662;BME280;30314;48.184;11.510;2022-10-16T12:01:15;96220.84;;;19.49;84.37
7662;BME280;30314;48.184;11.510;2022-10-16T12:03:59;96230.22;;;19.68;79.82
7662;BME280;30314;48.184;11.510;2022-10-16T12:06:34;96083.47;;;18.58;80.65
7662;BME280;30314;48.184;11.510;2022-10-16T12:09:04;96116.34;;;18.83;78.15
7662;BME280;30314;48.184;11.510;2022-10-16T12:11:35;96120.34;;;18.77;82.99
7662;BME280;30314;48.184;11.510;2022-10-16T12:16:53;96207.94;;;19.39;83.66
7662;BME280;30314;48.184;11.510;2022-10-16T12:19:24;96210.84;;;19.34;81.81
7662;BME280;30314;48.184;11.510;2022-10-16T12:21:55;96212.50;;;19.38;81.39
7662;BME280;30314;48.184;11.510;2022-10-16T12:24:32;96227.88;;;19.54;83.03
7662;BME280;30314;48.184;11.510;2022-10-16T12:27:02;96119.34;;;18.82;80.77
7662;BME280;30314;48.184;11.510;2022-10-16T12:29:34;96220.84;;;19.49;85.44
7662;BME280;30314;48.184;11.510;2022-10-16T12:32:04;96228.72;;;19.42;85.61
7662;BME280;30314;48.184;11.510;2022-10-16T12:34:38;96131.56;;;18.67;84.65
7662;BME280;30314;48.184;11.510;2022-10-16T12:37:10;96173.59;;;19.16;87.58
7662;BME280;30314;48.184;11.510;2022-10-16T12:39:38;96224.66;;;19.48;79.21
7662;BME280;30314;48.184;11.510;2022-10-16T12:42:20;96217.53;;;19.52;68.48
7662;BME280;30314;48.184;11.510;2022-10-16T12:44:57;96217.16;;;19.54;70.99
7662;BME280;30314;48.184;11.510;2022-10-16T12:47:36;96099.72;;;18.78;64.24
7662;BME280;30314;48.184;11.510;2022-10-16T12:50:31;96217.34;;;19.74;68.49
7662;BME280;30314;48.184;11.510;2022-10-16T12:53:00;96195.91;;;19.61;65.41
7662;BME280;30314;48.184;11.510;2022-10-16T12:55:35;96209.56;;;19.97;64.91
7662;BME280;30314;48.184;11.510;2022-10-16T12:58:20;96204.31;;;19.88;63.83
7662;BME280;30314;48.184;11.510;2022-10-16T13:00:56;96092.97;;;18.96;70.49
7662;BME280;30314;48.184;11.510;2022-10-16T13:03:48;96209.44;;;19.65;70.52
7662;BME280;30314;48.184;11.510;2022-10-16T13:06:30;96143.00;;;19.17;71.67
7662;BME280;30314;48.184;11.510;2022-10-16T13:09:21;96211.88;;;19.70;67.76
7662;BME280;30314;48.184;11.510;2022-10-16T13:11:58;96089.75;;;18.91;67.77
7662;BME280;30314;48.184;11.510;2022-10-16T13:14:51;96201.56;;;19.72;70.35
7662;BME280;30314;48.184;11.510;2022-10-16T13:17:24;96210.09;;;19.62;73.01
7662;BME280;30314;48.184;11.510;2022-10-16T13:20:01;96217.03;;;19.63;71.28
7662;BME280;30314;48.184;11.510;2022-10-16T13:22:40;96220.94;;;19.65;75.05